Time;durP1;ratioP1;P1;durP2;ratioP2;P2;SDS_P1;SDS_P2;PMS_P1;PMS_P2;Temp;Humidity;BMP_temperature;BMP_pressure;BME280_temperature;BME280_humidity;BME280_pressure;Samples;Min_cycle;Max_cycle;Signal;HPM_P1;HPM_P2
2021/08/03 00:01:23;;;;;;;20.92;7.13;;;;;;;29.42;100.00;100610.13;4918095;29;20028;-69
2021/08/03 00:04:16;;;;;;;18.27;6.65;;;;;;;29.03;100.00;100597.78;4918366;29;20032;-69
2021/08/03 00:07:03;;;;;;;18.30;6.85;;;;;;;28.82;100.00;100607.00;4918001;29;20039;-69
2021/08/03 00:09:51;;;;;;;20.65;7.07;;;;;;;28.76;100.00;100600.34;4918167;29;20032;-69
2021/08/03 00:12:37;;;;;;;22.60;7.03;;;;;;;28.71;100.00;100597.25;4918087;29;20032;-69
2021/08/03 00:15:23;;;;;;;23.10;7.32;;;;;;;28.75;100.00;100601.34;4917965;29;20460;-69
2021/08/03 00:18:09;;;;;;;23.58;7.47;;;;;;;28.68;100.00;100612.88;4917895;29;20028;-69
2021/08/03 00:20:56;;;;;;;23.48;7.45;;;;;;;28.24;100.00;100608.88;4917008;29;20035;-69
2021/08/03 00:23:45;;;;;;;23.13;7.75;;;;;;;28.46;100.00;100607.78;4917947;29;20389;-69
2021/08/03 00:26:31;;;;;;;21.55;8.05;;;;;;;28.21;100.00;100606.47;4917507;29;20112;-69
2021/08/03 00:29:17;;;;;;;22.52;7.85;;;;;;;28.46;100.00;100610.47;4917681;29;20035;-69
2021/08/03 00:32:04;;;;;;;23.38;8.02;;;;;;;28.19;100.00;100616.53;4917810;29;20429;-69
2021/08/03 00:34:50;;;;;;;21.27;7.78;;;;;;;28.26;100.00;100623.06;4917916;29;20051;-69
2021/08/03 00:37:36;;;;;;;20.65;7.95;;;;;;;28.34;100.00;100623.22;4917632;29;20044;-69
2021/08/03 00:40:25;;;;;;;24.13;8.50;;;;;;;28.30;100.00;100626.34;4917751;29;20060;-69
2021/08/03 00:43:11;;;;;;;24.92;8.93;;;;;;;28.28;100.00;100625.63;4917299;29;20034;-69
2021/08/03 00:45:56;;;;;;;28.63;9.35;;;;;;;27.77;100.00;100624.94;4917814;29;20412;-69
2021/08/03 00:48:42;;;;;;;22.33;9.90;;;;;;;28.00;100.00;100635.38;4916741;29;20031;-70
2021/08/03 00:51:28;;;;;;;22.80;9.85;;;;;;;28.01;100.00;100639.78;4918051;29;20060;-70
2021/08/03 00:54:14;;;;;;;26.73;10.38;;;;;;;27.92;100.00;100642.47;4917653;29;20362;-69
2021/08/03 00:57:00;;;;;;;27.23;11.00;;;;;;;27.77;100.00;100650.06;4917171;29;20040;-70
2021/08/03 00:59:46;;;;;;;21.95;11.02;;;;;;;27.98;100.00;100658.06;4918587;29;20381;-69
2021/08/03 01:02:32;;;;;;;24.70;10.95;;;;;;;27.90;100.00;100655.19;4917413;29;20028;-69
2021/08/03 01:05:18;;;;;;;28.58;11.32;;;;;;;27.86;100.00;100657.31;4917991;29;20343;-69
2021/08/03 01:08:23;;;;;;;30.08;11.50;;;;;;;27.94;100.00;100665.56;4917877;29;20032;-69
2021/08/03 01:11:21;;;;;;;26.85;11.40;;;;;;;28.07;100.00;100673.38;4918135;29;20365;-69
2021/08/03 01:14:34;;;;;;;24.55;11.77;;;;;;;27.90;100.00;100665.97;4917578;29;20079;-69
2021/08/03 01:17:20;;;;;;;25.60;12.05;;;;;;;27.78;100.00;100678.69;4918016;29;20032;-69
2021/08/03 01:20:17;;;;;;;32.45;12.05;;;;;;;27.53;100.00;100673.78;4917491;29;20123;-69
2021/08/03 01:23:40;;;;;;;32.85;13.05;;;;;;;27.07;100.00;100682.25;4918218;29;20059;-69
2021/08/03 01:26:38;;;;;;;34.25;12.45;;;;;;;27.26;100.00;100670.78;4917655;29;20092;-70
2021/08/03 07:46:23;;;;;;;14.30;7.93;;;;;;;31.78;100.00;101008.38;5582329;23;20048;-70
2021/08/03 07:49:09;;;;;;;16.45;8.02;;;;;;;31.98;100.00;101012.63;4899563;29;20462;-70
2021/08/03 07:51:57;;;;;;;29.17;8.60;;;;;;;32.42;100.00;101021.66;4900425;29;20152;-70
2021/08/03 07:54:43;;;;;;;10.70;7.45;;;;;;;32.29;100.00;101019.34;4899667;29;20043;-70
2021/08/03 07:57:29;;;;;;;12.48;7.82;;;;;;;32.35;100.00;101020.56;4881301;29;20035;-70
2021/08/03 08:00:15;;;;;;;15.23;7.70;;;;;;;32.56;100.00;101015.63;4882121;29;20037;-71
2021/08/03 08:03:08;;;;;;;18.63;8.15;;;;;;;31.95;100.00;101014.78;4881378;29;20021;-72
2021/08/03 09:16:59;;;;;;;15.10;7.75;;;;;;;33.78;84.26;101020.41;4933509;23;20089;-71
2021/08/03 09:19:44;;;;;;;14.07;7.75;;;;;;;33.87;82.62;101013.97;4917934;29;20059;-72
2021/08/03 09:22:30;;;;;;;16.50;7.80;;;;;;;34.05;82.97;101008.38;4920398;29;20020;-72
2021/08/03 10:04:07;;;;;;;11.18;6.65;;;;;;;34.07;70.04;101000.91;4999365;23;20057;-70
2021/08/03 10:06:53;;;;;;;10.00;6.80;;;;;;;34.46;69.25;100996.44;4901817;29;20389;-69
2021/08/03 10:09:39;;;;;;;14.48;7.30;;;;;;;34.35;69.57;100984.06;4902071;29;20095;-70
2021/08/03 10:12:28;;;;;;;11.90;7.10;;;;;;;34.43;72.49;100977.78;4901933;29;20032;-70
2021/08/03 10:15:14;;;;;;;12.40;7.05;;;;;;;34.52;69.83;100980.28;4902439;29;20032;-70
2021/08/03 10:18:00;;;;;;;9.52;6.65;;;;;;;34.38;72.40;100982.84;4901895;29;20029;-70
2021/08/03 10:20:48;;;;;;;14.88;7.35;;;;;;;34.74;71.85;100989.56;4902648;29;20484;-71
2021/08/03 10:23:36;;;;;;;11.68;6.90;;;;;;;34.37;73.21;100981.16;4902020;29;20377;-71
2021/08/03 10:26:23;;;;;;;12.75;7.53;;;;;;;34.06;76.96;100983.72;4902859;29;20044;-70
2021/08/03 10:29:24;;;;;;;11.13;6.90;;;;;;;34.44;72.30;100982.19;4902818;29;20021;-71
2021/08/03 10:32:37;;;;;;;13.38;7.10;;;;;;;34.41;72.06;100977.09;4901531;29;20470;-72
2021/08/03 10:35:49;;;;;;;12.02;7.65;;;;;;;34.57;71.81;100977.03;4901216;29;20043;-73
2021/08/03 15:33:20;;;;;;;8.73;4.32;;;;;;;35.24;35.25;100780.25;5288186;23;20060;-72
2021/08/03 15:36:06;;;;;;;8.50;4.78;;;;;;;35.06;37.09;100779.72;4900952;29;20075;-72
2021/08/03 15:38:52;;;;;;;7.97;5.55;;;;;;;35.46;40.87;100789.44;4899655;29;20033;-72
2021/08/03 15:41:37;;;;;;;9.55;5.03;;;;;;;35.16;36.15;100786.59;4900228;29;20053;-72
2021/08/03 15:44:23;;;;;;;5.95;3.45;;;;;;;35.00;32.11;100780.47;4899814;29;20032;-72
2021/08/03 15:47:11;;;;;;;13.73;3.90;;;;;;;35.10;30.25;100781.03;4899801;29;20401;-72
2021/08/03 15:49:57;;;;;;;6.93;3.10;;;;;;;34.95;29.94;100781.00;4899473;29;20039;-72
2021/08/03 15:52:43;;;;;;;7.57;3.83;;;;;;;35.28;30.13;100783.44;4899842;29;20024;-72
2021/08/03 15:55:28;;;;;;;7.15;3.17;;;;;;;35.09;29.19;100791.09;4899191;29;20028;-72
2021/08/03 15:58:14;;;;;;;5.78;3.13;;;;;;;35.06;28.75;100780.56;4899681;29;20095;-73
2021/08/03 16:01:00;;;;;;;8.45;3.70;;;;;;;34.89;29.20;100778.16;4899357;29;20071;-72
2021/08/03 16:03:46;;;;;;;7.93;3.35;;;;;;;34.83;29.30;100787.03;4900581;29;20025;-73
2021/08/03 16:06:32;;;;;;;11.82;5.00;;;;;;;34.96;32.23;100781.84;4899307;29;20024;-72
2021/08/03 16:09:17;;;;;;;10.88;5.57;;;;;;;34.88;34.53;100788.19;4899252;29;20033;-72
2021/08/03 17:56:28;;;;;;;11.07;6.57;;;;;;;30.72;100.00;100857.59;5865935;23;20031;-73
2021/08/03 17:59:16;;;;;;;14.45;6.30;;;;;;;30.37;100.00;100850.19;4899375;29;20389;-72
2021/08/03 18:02:02;;;;;;;16.20;6.78;;;;;;;30.27;100.00;100852.09;4898538;29;20025;-72
2021/08/03 18:04:49;;;;;;;18.30;6.82;;;;;;;30.31;100.00;100856.22;4899122;29;20043;-72
2021/08/03 18:07:35;;;;;;;21.10;6.80;;;;;;;30.42;100.00;100858.69;4879618;29;20099;-73
2021/08/03 18:55:26;;;;;;;14.77;10.07;;;;;;;30.02;100.00;100866.22;5928514;23;19921;-72
2021/08/03 18:58:12;;;;;;;21.17;11.60;;;;;;;29.96;100.00;100885.75;4901871;29;20028;-72
2021/08/03 19:00:58;;;;;;;13.43;10.48;;;;;;;29.76;100.00;100886.78;4902299;29;20024;-72
2021/08/03 19:03:44;;;;;;;21.10;11.43;;;;;;;29.51;100.00;100891.91;4901511;29;20111;-74
2021/08/03 19:06:36;;;;;;;16.83;10.80;;;;;;;29.75;100.00;100895.91;4901158;29;20068;-73
